• Join FlightAware (Why Join?)
  • Login
  • US Flag 
05:58AM EST


 

Airport Tracker/Info


-or-


 

Live Flight TrackerFlight Track Log ✈ UAL33 ✈ 20-Jun-2013 ✈ KORD - KIAH

Flight Track Log - Related Links

Times and Time Zones

All times are in EDT time to prevent confusion due to time zone crossing. See the UAL33 flight status page for this flight to view local times or setup timezone preferences in your user account.

Time Position Orientation Groundspeed Altitude Reporting Facility
EDT Latitude Longitude Course Direction KTS MPH feet Rate Location/Type
09:52PM 41.9470 -87.9070 223° Southwest 166 191 1,200  Level FlightAware
09:53PM 41.9340 -87.9260 227° Southwest 184 212 2,200 2,520 Climbing FlightAware
09:53PM 41.9150 -87.9530 227° Southwest 207 238 3,500 2,760 Climbing FlightAware
09:54PM 41.8920 -87.9830 224° Southwest 248 285 4,800 2,880 Climbing FlightAware
09:54PM 41.8680 -88.0150 225° Southwest 262 302 6,400 3,420 Climbing FlightAware
09:54PM 41.8450 -88.0500 229° Southwest 272 313 8,100 3,420 Climbing FlightAware
09:55PM 41.8420 -88.0700 259° West 276 318 8,700 3,360 Climbing FlightAware
09:55PM 41.8380 -88.1510 266° West 291 335 11,400 3,000 Climbing FlightAware
09:56PM 41.8360 -88.2180 268° West 303 349 12,800 1,800 Climbing FlightAware
09:57PM 41.8320 -88.3020 266° West 336 387 13,800 1,620 Climbing FlightAware
09:57PM 41.8230 -88.3960 263° West 374 430 15,200 1,800 Climbing FlightAware
09:58PM 41.8030 -88.4860 253° West 385 443 16,400 2,400 Climbing FlightAware
09:59PM 41.7820 -88.5870 254° West 389 448 18,600 2,700 Climbing FlightAware
10:00PM 41.7590 -88.6910 254° West 407 468 20,300 2,100 Climbing FlightAware
10:00PM 41.7370 -88.7960 254° West 425 489 21,700 2,280 Climbing FlightAware
10:01PM 41.7150 -88.8950 253° West 429 494 23,400 2,700 Climbing FlightAware
10:02PM 41.6900 -89.0080 254° West 425 489 25,500 2,460 Climbing FlightAware
10:02PM 41.6740 -89.0830 254° West 424 488 26,800 2,280 Climbing FlightAware
10:03PM 41.6430 -89.2210 253° West 426 490 28,700 1,980 Climbing FlightAware
10:04PM 41.6190 -89.3330 254° West 435 501 29,900 1,380 Climbing FlightAware
10:05PM 41.5950 -89.4390 253° West 446 513 30,700 1,260 Climbing FlightAware
10:05PM 41.5690 -89.5550 253° West 453 521 31,700 1,680 Climbing FlightAware
10:06PM 41.5470 -89.6560 254° West 448 516 33,000 2,100 Climbing FlightAware
10:07PM 41.5200 -89.7740 253° West 435 501 34,700 2,220 Climbing FlightAware
10:07PM 41.4960 -89.8810 253° West 419 482 36,300 1,800 Climbing FlightAware
10:08PM 41.4750 -89.9740 253° West 416 479 37,200 960 Climbing FlightAware
10:09PM 41.4490 -90.0850 253° West 424 488 37,700 480 Climbing FlightAware
10:09PM 41.4280 -90.1780 253° West 434 499 37,900 540 Climbing FlightAware
10:10PM 41.4000 -90.2970 253° West 438 504 38,500 960 Climbing FlightAware
10:11PM 41.3710 -90.4230 253° West 430 495 39,600 900 Climbing FlightAware
10:12PM 41.3440 -90.5400 253° West 428 493 40,000 240 Climbing FlightAware
10:12PM 41.3120 -90.6480 249° West 429 494 40,000  Level FlightAware
10:13PM 41.2640 -90.7340 233° Southwest 429 494 40,000  Level FlightAware
10:14PM 41.2180 -90.8120 232° Southwest 428 493 40,000  Level FlightAware
10:15PM 41.1600 -90.9110 232° Southwest 426 490 40,000  Level FlightAware
10:16PM 41.0810 -91.0440 232° Southwest 427 491 40,000  Level FlightAware
10:16PM 41.0300 -91.1290 232° Southwest 427 491 40,000  Level FlightAware
10:17PM 40.9700 -91.2290 232° Southwest 427 491 40,000  Level FlightAware
10:18PM 40.9210 -91.3110 232° Southwest 428 493 40,000  Level FlightAware
10:18PM 40.8750 -91.3870 231° Southwest 429 494 40,000  Level FlightAware
10:19PM 40.8160 -91.4840 231° Southwest 432 497 40,000  Level FlightAware
10:20PM 40.7720 -91.5580 232° Southwest 431 496 40,000  Level FlightAware
10:21PM 40.7160 -91.6490 231° Southwest 433 498 40,000  Level FlightAware
10:21PM 40.6630 -91.7380 232° Southwest 433 498 40,000  Level FlightAware
10:22PM 40.6120 -91.8210 231° Southwest 434 499 40,000  Level FlightAware
10:23PM 40.5530 -91.9170 231° Southwest 433 498 40,000  Level FlightAware
10:23PM 40.4990 -92.0050 231° Southwest 433 498 40,000  Level FlightAware
10:24PM 40.4510 -92.0830 231° Southwest 431 496 40,000  Level FlightAware
10:25PM 40.4070 -92.1550 231° Southwest 428 493 40,000  Level FlightAware
10:26PM 40.3420 -92.2590 231° Southwest 426 490 40,000  Level FlightAware
10:26PM 40.2900 -92.3440 231° Southwest 424 488 40,000  Level FlightAware
10:27PM 40.2410 -92.4220 231° Southwest 423 487 40,000  Level FlightAware
10:28PM 40.1900 -92.5040 231° Southwest 422 486 40,000  Level FlightAware
10:28PM 40.1370 -92.5860 230° Southwest 422 486 40,000  Level FlightAware
10:29PM 40.0790 -92.6510 221° Southwest 425 489 40,000  Level FlightAware
10:30PM 40.0070 -92.7260 219° Southwest 426 490 40,000  Level FlightAware
10:30PM 39.9430 -92.7930 219° Southwest 426 490 40,000  Level FlightAware
10:31PM 39.8850 -92.8540 219° Southwest 426 490 40,000  Level FlightAware
10:32PM 39.8140 -92.9280 219° Southwest 425 489 40,000  Level FlightAware
10:33PM 39.7580 -92.9870 219° Southwest 423 487 40,000  Level FlightAware
10:33PM 39.6940 -93.0530 218° Southwest 419 482 40,000  Level FlightAware
10:34PM 39.6190 -93.1300 218° Southwest 416 479 40,000  Level FlightAware
10:35PM 39.5620 -93.1900 219° Southwest 416 479 40,000  Level FlightAware
10:35PM 39.4980 -93.2550 218° Southwest 416 479 40,000  Level FlightAware
10:36PM 39.4320 -93.3230 219° Southwest 419 482 40,000  Level FlightAware
10:37PM 39.3660 -93.3910 219° Southwest 421 484 40,000  Level FlightAware
10:37PM 39.3040 -93.4540 218° Southwest 421 484 40,000  Level FlightAware
10:38PM 39.2420 -93.5170 218° Southwest 422 486 40,000  Level FlightAware
10:39PM 39.1720 -93.5890 219° Southwest 422 486 40,000  Level FlightAware
10:40PM 39.1080 -93.6540 218° Southwest 422 486 40,000  Level FlightAware
10:40PM 39.0560 -93.7070 218° Southwest 421 484 40,000  Level FlightAware
10:41PM 38.9830 -93.7810 218° Southwest 420 483 40,000  Level FlightAware
10:42PM 38.9160 -93.8490 218° Southwest 419 482 40,000  Level FlightAware
10:42PM 38.8550 -93.9110 218° Southwest 419 482 40,000  Level FlightAware
10:43PM 38.7910 -93.9760 218° Southwest 420 483 40,000  Level FlightAware
10:44PM 38.7220 -94.0440 218° Southwest 421 484 40,000  Level FlightAware
10:44PM 38.6630 -94.1040 218° Southwest 421 484 40,000  Level FlightAware
10:45PM 38.6280 -94.1390 218° Southwest 422 486 40,000  Level FlightAware
10:46PM 38.5390 -94.2260 217° Southwest 420 483 40,000  Level FlightAware
10:46PM 38.4920 -94.2720 217° Southwest 419 482 40,000  Level FlightAware
10:47PM 38.4290 -94.3350 218° Southwest 417 480 40,000  Level FlightAware
10:48PM 38.3690 -94.3930 217° Southwest 414 476 40,000  Level FlightAware
10:48PM 38.3040 -94.4560 217° Southwest 413 475 40,000  Level FlightAware
10:49PM 38.2320 -94.5140 212° Southwest 416 479 40,000  Level FlightAware
10:50PM 38.1630 -94.5590 207° Southwest 416 479 40,000  Level FlightAware
10:50PM 38.0930 -94.6040 207° Southwest 417 480 40,000  Level FlightAware
10:51PM 38.0190 -94.6510 207° Southwest 417 480 40,000  Level FlightAware
10:52PM 37.9540 -94.6930 207° Southwest 417 480 40,000  Level FlightAware
10:53PM 37.8750 -94.7430 207° Southwest 418 481 40,000  Level FlightAware
10:53PM 37.8020 -94.7900 207° Southwest 419 482 40,000  Level FlightAware
10:54PM 37.7260 -94.8380 207° Southwest 419 482 40,000  Level FlightAware
10:55PM 37.6530 -94.8850 207° Southwest 418 481 40,000  Level FlightAware
10:55PM 37.5810 -94.9300 206° Southwest 417 480 40,000  Level FlightAware
10:56PM 37.5120 -94.9740 207° Southwest 415 478 40,000  Level FlightAware
10:57PM 37.4150 -95.0350 207° Southwest 415 478 40,000  Level FlightAware
10:58PM 37.3400 -95.0820 206° Southwest 415 478 40,000  Level FlightAware
10:58PM 37.2710 -95.1250 206° Southwest 414 476 40,000  Level FlightAware
10:59PM 37.1920 -95.1740 206° Southwest 415 478 40,000  Level FlightAware
11:00PM 37.1230 -95.2180 207° Southwest 415 478 40,000  Level FlightAware
11:00PM 37.0550 -95.2600 206° Southwest 413 475 40,000  Level FlightAware
11:01PM 36.9740 -95.3100 206° Southwest 411 473 40,000  Level FlightAware
11:02PM 36.9070 -95.3520 207° Southwest 412 474 40,000  Level FlightAware
11:03PM 36.8420 -95.3920 206° Southwest 411 473 40,000  Level FlightAware
11:03PM 36.7660 -95.4390 206° Southwest 410 472 40,000  Level FlightAware
11:04PM 36.6910 -95.4860 207° Southwest 413 475 40,000  Level FlightAware
11:05PM 36.6170 -95.5310 206° Southwest 415 478 40,000  Level FlightAware
11:06PM 36.5070 -95.5980 206° Southwest 415 478 40,000  Level FlightAware
11:07PM 36.4480 -95.6350 207° Southwest 418 481 40,000  Level FlightAware
11:07PM 36.3610 -95.6880 206° Southwest 419 482 40,000  Level FlightAware
11:08PM 36.2930 -95.7290 206° Southwest 420 483 40,000  Level FlightAware
11:09PM 36.2100 -95.7790 206° Southwest 420 483 40,000  Level FlightAware
11:09PM 36.1400 -95.8150 203° Southwest 421 484 40,000  Level FlightAware
11:10PM 36.0460 -95.8410 193° South 427 491 40,000  Level FlightAware
11:11PM 35.9390 -95.8780 196° South 427 491 40,000  Level FlightAware
11:12PM 35.8680 -95.9030 196° South 427 491 40,000  Level FlightAware
11:12PM 35.7790 -95.9340 196° South 428 493 40,000  Level FlightAware
11:13PM 35.7020 -95.9610 196° South 431 496 40,000  Level FlightAware
11:14PM 35.6270 -95.9870 196° South 433 498 40,000  Level FlightAware
11:14PM 35.5430 -96.0160 196° South 434 499 40,000  Level FlightAware
11:15PM 35.4870 -96.0350 195° South 433 498 40,000  Level FlightAware
11:16PM 35.3910 -96.0690 196° South 431 496 40,000  Level FlightAware
11:16PM 35.3120 -96.0960 196° South 430 495 40,000  Level FlightAware
11:17PM 35.2300 -96.1240 196° South 428 493 40,000  Level FlightAware
11:18PM 35.1520 -96.1510 196° South 428 493 40,000  Level FlightAware
11:19PM 35.0750 -96.1770 195° South 428 493 40,000  Level FlightAware
11:19PM 34.9930 -96.2050 196° South 428 493 40,000  Level FlightAware
11:20PM 34.9080 -96.2340 196° South 428 493 40,000  Level FlightAware
11:21PM 34.8310 -96.2600 195° South 428 493 40,000  Level FlightAware
11:21PM 34.7480 -96.2880 195° South 428 493 40,000  Level FlightAware
11:22PM 34.6800 -96.3120 196° South 429 494 40,000  Level FlightAware
11:23PM 34.5950 -96.3400 195° South 430 495 40,000  Level FlightAware
11:24PM 34.5070 -96.3700 196° South 429 494 40,000  Level FlightAware
11:24PM 34.4260 -96.3970 195° South 427 491 40,000  Level FlightAware
11:25PM 34.3080 -96.4370 196° South 425 489 40,000  Level FlightAware
11:26PM 34.2260 -96.4640 195° South 424 488 40,000  Level FlightAware
11:27PM 34.1380 -96.4940 196° South 426 490 40,000  Level FlightAware
11:27PM 34.0650 -96.5180 195° South 426 490 40,000  Level FlightAware
11:28PM 33.9780 -96.5470 195° South 427 491 40,000  Level FlightAware
11:29PM 33.8990 -96.5730 195° South 428 493 40,000  Level FlightAware
11:30PM 33.8170 -96.6000 195° South 428 493 40,000  Level FlightAware
11:30PM 33.7518 -96.6220 196° South 427 491 40,000  Level FlightAware ADS-B
11:31PM 33.6962 -96.6390 194° South 430 495 40,000  Level FlightAware ADS-B
11:31PM 33.6636 -96.6439 187° South 435 501 40,000  Level FlightAware ADS-B
11:31PM 33.6292 -96.6445 181° South 441 507 40,000  Level FlightAware ADS-B
11:32PM 33.5750 -96.6410 177° South 441 507 40,000  Level FlightAware
11:32PM 33.5519 -96.6395 177° South 442 509 40,000  Level FlightAware ADS-B
11:32PM 33.4850 -96.6352 177° South 441 507 40,000  Level FlightAware ADS-B
11:33PM 33.4198 -96.6312 177° South 441 507 40,000  Level FlightAware ADS-B
11:33PM 33.3506 -96.6270 177° South 442 509 40,000  Level FlightAware ADS-B
11:34PM 33.2319 -96.6194 177° South 442 509 40,000  Level FlightAware ADS-B
11:35PM 33.1495 -96.6143 177° South 441 507 40,000  Level FlightAware ADS-B
11:36PM 33.0833 -96.6101 177° South 441 507 40,000  Level FlightAware ADS-B
11:36PM 32.9980 -96.6051 177° South 441 507 40,000  Level FlightAware ADS-B
11:37PM 32.9190 -96.6002 177° South 441 507 40,000  Level FlightAware ADS-B
11:38PM 32.8503 -96.5959 177° South 448 516 40,000  Level FlightAware ADS-B
11:38PM 32.7817 -96.5915 177° South 450 518 40,000  Level FlightAware ADS-B
11:39PM 32.7186 -96.5876 177° South 450 518 40,000  Level FlightAware ADS-B
11:39PM 32.6360 -96.5830 177° South 450 518 40,000  Level FlightAware
11:40PM 32.5840 -96.5794 177° South 450 518 40,000  Level FlightAware ADS-B
11:40PM 32.5079 -96.5748 177° South 449 517 40,000  Level FlightAware ADS-B
11:41PM 32.4453 -96.5709 177° South 449 517 40,000  Level FlightAware ADS-B
11:41PM 32.3824 -96.5670 177° South 447 514 40,000  Level FlightAware ADS-B
11:42PM 32.3194 -96.5632 177° South 444 511 40,000  Level FlightAware ADS-B
11:42PM 32.2578 -96.5594 177° South 442 509 40,000  Level FlightAware ADS-B
11:44PM 32.0695 -96.5481 177° South 436 502 40,000  Level FlightAware ADS-B
11:44PM 32.0025 -96.5440 177° South 434 499 40,000  Level FlightAware ADS-B
11:45PM 31.9414 -96.5402 177° South 432 497 40,000 -540 Level FlightAware ADS-B
11:45PM 31.8804 -96.5366 177° South 433 498 39,500 -1,020 Descending FlightAware ADS-B
11:46PM 31.8197 -96.5331 177° South 436 502 39,000 -360 Descending FlightAware ADS-B
11:47PM 31.6971 -96.5255 177° South 434 499 39,000 -120 Level FlightAware ADS-B
11:47PM 31.6371 -96.5219 177° South 432 497 38,900 -1,500 Descending FlightAware ADS-B
11:48PM 31.5751 -96.5182 177° South 437 503 37,500 -2,640 Descending FlightAware ADS-B
11:48PM 31.5545 -96.5168 177° South 437 503 37,100 -2,580 Descending FlightAware ADS-B
11:48PM 31.5085 -96.5090 169° South 442 509 36,100 -3,180 Descending FlightAware ADS-B
11:49PM 31.4207 -96.4780 162° South 458 527 33,600 -3,420 Descending FlightAware ADS-B
11:50PM 31.3770 -96.4615 162° South 462 532 32,400 -2,940 Descending FlightAware ADS-B
11:50PM 31.3128 -96.4503 173° South 454 522 31,100 -1,380 Descending FlightAware ADS-B
11:51PM 31.2496 -96.4539 183° South 452 520 31,000 -600 Descending FlightAware ADS-B
11:51PM 31.1863 -96.4584 183° South 456 525 30,500 -1,800 Descending FlightAware ADS-B
11:52PM 31.1225 -96.4636 184° South 450 518 29,200 -2,460 Descending FlightAware ADS-B
11:52PM 31.0604 -96.4694 185° South 441 507 28,000 -2,400 Descending FlightAware ADS-B
11:53PM 30.9385 -96.4802 184° South 426 490 25,600 -2,400 Descending FlightAware ADS-B
11:54PM 30.8707 -96.4848 180° South 422 486 24,200 -2,220 Descending FlightAware ADS-B
11:54PM 30.8520 -96.4812 168° South 428 493 24,000 -1,140 Descending FlightAware ADS-B
11:54PM 30.8277 -96.4701 155° Southeast 433 498 23,800 -960 Descending FlightAware ADS-B
11:54PM 30.8183 -96.4637 150° Southeast 433 498 23,700 -1,020 Descending FlightAware ADS-B
11:54PM 30.8078 -96.4550 145° Southeast 434 499 23,600 -1,920 Descending FlightAware ADS-B
11:56PM 30.6685 -96.3211 141° Southeast 416 479 20,600 -2,100 Descending FlightAware ADS-B
11:56PM 30.6231 -96.2782 141° Southeast 409 471 19,400 -2,400 Descending FlightAware ADS-B
11:57PM 30.5793 -96.2367 141° Southeast 399 459 18,200 -2,400 Descending FlightAware ADS-B
11:57PM 30.5367 -96.1962 141° Southeast 390 449 17,000 -2,460 Descending FlightAware ADS-B
11:58PM 30.4536 -96.1176 141° Southeast 370 426 14,500 -2,400 Descending FlightAware ADS-B
11:59PM 30.4138 -96.0799 141° Southeast 362 417 13,400 -2,280 Descending FlightAware ADS-B
11:59PM 30.3867 -96.0541 141° Southeast 353 406 12,600 -3,000 Descending FlightAware ADS-B
12:00AM 30.3606 -96.0230 131° Southeast 361 415 11,200 -3,120 Descending FlightAware ADS-B
12:00AM 30.3332 -95.9813 127° Southeast 358 412 10,000 -1,200 Descending FlightAware ADS-B
12:02AM 30.2460 -95.8484 128° Southeast 281 323 8,700 -960 Descending FlightAware ADS-B
12:02AM 30.2222 -95.8124 127° Southeast 277 319 7,900 -1,620 Descending FlightAware ADS-B
12:03AM 30.1989 -95.7771 127° Southeast 275 316 7,100 -1,620 Descending FlightAware ADS-B
12:03AM 30.1752 -95.7415 128° Southeast 272 313 6,300 -1,560 Descending FlightAware ADS-B
12:04AM 30.1517 -95.7060 127° Southeast 267 307 5,500 -1,620 Descending FlightAware ADS-B
12:04AM 30.1403 -95.6887 127° Southeast 264 304 5,100 -1,620 Descending FlightAware ADS-B
12:04AM 30.1292 -95.6716 127° Southeast 261 300 4,700 -1,620 Descending FlightAware ADS-B
12:05AM 30.1180 -95.6546 127° Southeast 260 299 4,300 -1,560 Descending FlightAware ADS-B
12:05AM 30.1098 -95.6421 127° Southeast 260 299 4,000 -1,560 Descending FlightAware ADS-B
12:05AM 30.0988 -95.6256 128° Southeast 257 296 3,600 -1,620 Descending FlightAware ADS-B
12:05AM 30.0880 -95.6091 127° Southeast 255 293 3,200 -1,380 Descending FlightAware ADS-B
12:05AM 30.0767 -95.5921 128° Southeast 252 290 2,900 -600 Descending FlightAware ADS-B
12:06AM 30.0662 -95.5763 128° Southeast 248 285 2,900  Level FlightAware ADS-B
12:06AM 30.0544 -95.5584 127° Southeast 247 284 2,900 -240 Level FlightAware ADS-B
12:06AM 30.0438 -95.5424 127° Southeast 248 285 2,800 -1,020 Descending FlightAware ADS-B
12:07AM 30.0331 -95.5264 128° Southeast 249 287 2,400 -1,680 Descending FlightAware ADS-B
12:07AM 30.0205 -95.5074 127° Southeast 252 290 1,900 -840 Descending FlightAware ADS-B
12:07AM 30.0082 -95.4892 128° Southeast 233 268 1,900 -180 Level FlightAware ADS-B
12:07AM 29.9969 -95.4724 128° Southeast 228 262 1,800 -300 Descending FlightAware ADS-B
12:08AM 29.9935 -95.4666 124° Southeast 221 254 1,800 -720 Level FlightAware ADS-B
12:08AM 29.9922 -95.4633 114° Southeast 219 252 1,700 -1,020 Descending FlightAware ADS-B
12:08AM 29.9907 -95.4535 100° East 211 243 1,600 -1,020 Descending FlightAware ADS-B
12:08AM 29.9910 -95.4502 84° East 210 242 1,500 -1,260 Descending FlightAware ADS-B
12:08AM 29.9932 -95.4288 83° East 184 212 1,100 -1,020 Descending FlightAware ADS-B
12:08AM 29.9930 -95.4193 91° East 169 194 1,000 -660 Descending FlightAware ADS-B
12:08AM 29.9933 -95.4115 87° East 162 186 900 -600 Descending FlightAware ADS-B
12:09AM 29.9935 -95.4021 89° East 153 176 800 -720 Descending FlightAware ADS-B
12:09AM 29.9937 -95.3899 89° East 143 165 600 -840 Descending FlightAware ADS-B
12:09AM 29.9937 -95.3839 90° East 141 162 500 -780 Descending FlightAware ADS-B